Time;durP1;ratioP1;P1;durP2;ratioP2;P2;SDS_P1;SDS_P2;PMS_P1;PMS_P2;Temp;Humidity;BMP_temperature;BMP_pressure;BME280_temperature;BME280_humidity;BME280_pressure;Samples;Min_cycle;Max_cycle;Signal;HPM_P1;HPM_P2
2024/01/10 00:02:13;;;;;;;;;;;;;;;;;;5126739;28;20121;-41
2024/01/10 00:04:39;;;;;;;;;;;;;;;;;;5126909;28;20010;-41
2024/01/10 00:07:05;;;;;;;;;;;;;;;;;;5127510;28;20425;-42
2024/01/10 00:09:30;;;;;;;;;;;;;;;;;;5126360;28;19923;-41
2024/01/10 00:11:55;;;;;;;;;;;;;;;;;;5126904;28;20071;-43
2024/01/10 00:14:21;;;;;;;;;;;;;;;;;;5126752;28;20294;-40
2024/01/10 00:16:46;;;;;;;;;;;;;;;;;;5126574;28;20379;-40
2024/01/10 00:19:12;;;;;;;;;;;;;;;;;;5126980;28;20398;-40
2024/01/10 00:21:37;;;;;;;;;;;;;;;;;;5128632;27;20040;-43
2024/01/10 00:24:03;;;;;;;;;;;;;;;;;;5130711;28;20013;-41
2024/01/10 00:26:28;;;;;;;;;;;;;;;;;;5129824;28;20098;-41
2024/01/10 00:28:54;;;;;;;;;;;;;;;;;;5130916;28;19970;-41
2024/01/10 00:31:19;;;;;;;;;;;;;;;;;;5130182;28;19931;-40
2024/01/10 00:33:45;;;;;;;;;;;;;;;;;;5130078;28;19969;-40
2024/01/10 00:36:10;;;;;;;;;;;;;;;;;;5130057;28;19923;-41
2024/01/10 00:38:36;;;;;;;;;;;;;;;;;;5130152;28;19924;-40
2024/01/10 00:41:01;;;;;;;;;;;;;;;;;;5129378;28;19924;-43
2024/01/10 00:43:27;;;;;;;;;;;;;;;;;;5130123;28;20014;-40
2024/01/10 00:45:52;;;;;;;;;;;;;;;;;;5130158;28;19981;-41
2024/01/10 00:48:17;;;;;;;;;;;;;;;;;;5129938;28;20026;-41
2024/01/10 00:50:44;;;;;;;;;;;;;;;;;;5130134;28;20023;-41
2024/01/10 00:53:09;;;;;;;;;;;;;;;;;;5130339;28;19935;-40
2024/01/10 00:55:35;;;;;;;;;;;;;;;;;;5129883;28;20022;-40
2024/01/10 00:58:00;;;;;;;;;;;;;;;;;;5130066;28;20424;-41
2024/01/10 01:00:26;;;;;;;;;;;;;;;;;;5130191;28;19963;-40
2024/01/10 01:02:51;;;;;;;;;;;;;;;;;;5129652;28;20573;-40
2024/01/10 01:05:17;;;;;;;;;;;;;;;;;;5130150;28;19974;-41
2024/01/10 01:07:43;;;;;;;;;;;;;;;;;;5129545;28;20018;-43
2024/01/10 01:10:08;;;;;;;;;;;;;;;;;;5129482;28;19930;-41
2024/01/10 01:12:34;;;;;;;;;;;;;;;;;;5129372;28;20298;-41
2024/01/10 01:14:59;;;;;;;;;;;;;;;;;;5129677;28;20009;-41
2024/01/10 01:17:25;;;;;;;;;;;;;;;;;;5129491;28;19931;-41
2024/01/10 01:19:50;;;;;;;;;;;;;;;;;;5129346;28;19924;-39
2024/01/10 01:22:16;;;;;;;;;;;;;;;;;;5129521;28;20022;-40
2024/01/10 01:24:41;;;;;;;;;;;;;;;;;;5129316;28;19973;-42
2024/01/10 01:27:06;;;;;;;;;;;;;;;;;;5128851;28;19973;-40
2024/01/10 01:29:32;;;;;;;;;;;;;;;;;;5129671;28;20407;-41
2024/01/10 01:31:57;;;;;;;;;;;;;;;;;;5129564;27;20014;-40
2024/01/10 01:34:23;;;;;;;;;;;;;;;;;;5129229;28;20021;-41
2024/01/10 01:36:51;;;;;;;;;;;;;;;;;;5128973;28;20022;-40
2024/01/10 01:39:16;;;;;;;;;;;;;;;;;;5129629;28;20414;-42
2024/01/10 01:41:41;;;;;;;;;;;;;;;;;;5128868;28;19973;-41
2024/01/10 01:44:07;;;;;;;;;;;;;;;;;;5128895;28;20286;-41
2024/01/10 01:46:32;;;;;;;;;;;;;;;;;;5128809;28;20173;-40
2024/01/10 01:48:58;;;;;;;;;;;;;;;;;;5129349;28;20010;-44
2024/01/10 01:51:24;;;;;;;;;;;;;;;;;;5128486;28;19927;-41
2024/01/10 01:53:49;;;;;;;;;;;;;;;;;;5129221;28;19931;-41
2024/01/10 01:56:15;;;;;;;;;;;;;;;;;;5129138;28;19931;-40
2024/01/10 01:58:41;;;;;;;;;;;;;;;;;;5128914;28;20109;-42
2024/01/10 02:01:06;;;;;;;;;;;;;;;;;;5128770;28;19962;-41
2024/01/10 02:03:33;;;;;;;;;;;;;;;;;;5127301;28;20022;-40
2024/01/10 02:05:58;;;;;;;;;;;;;;;;;;5128953;28;19963;-42
2024/01/10 02:08:24;;;;;;;;;;;;;;;;;;5128916;28;19976;-43
2024/01/10 02:10:49;;;;;;;;;;;;;;;;;;5128465;28;19994;-41
2024/01/10 02:13:15;;;;;;;;;;;;;;;;;;5128562;28;20058;-41
2024/01/10 02:15:40;;;;;;;;;;;;;;;;;;5128336;28;19931;-41
2024/01/10 02:18:06;;;;;;;;;;;;;;;;;;5129146;28;20034;-41
2024/01/10 02:20:31;;;;;;;;;;;;;;;;;;5128451;28;19979;-40
2024/01/10 02:22:57;;;;;;;;;;;;;;;;;;5128549;28;20013;-41
2024/01/10 02:25:22;;;;;;;;;;;;;;;;;;5128683;28;19963;-40
2024/01/10 02:27:48;;;;;;;;;;;;;;;;;;5128494;28;20434;-41
2024/01/10 02:30:13;;;;;;;;;;;;;;;;;;5128520;28;19940;-42
2024/01/10 02:32:39;;;;;;;;;;;;;;;;;;5128378;28;19970;-40
2024/01/10 02:35:04;;;;;;;;;;;;;;;;;;5128181;28;19930;-43
2024/01/10 02:37:30;;;;;;;;;;;;;;;;;;5128234;28;19984;-40
2024/01/10 02:39:55;;;;;;;;;;;;;;;;;;5125086;28;19976;-40
2024/01/10 02:42:21;;;;;;;;;;;;;;;;;;5128104;28;20331;-42
2024/01/10 02:44:46;;;;;;;;;;;;;;;;;;5127081;27;19934;-42
2024/01/10 02:47:12;;;;;;;;;;;;;;;;;;5128173;28;20367;-41
2024/01/10 02:49:37;;;;;;;;;;;;;;;;;;5128137;28;19938;-40
2024/01/10 02:52:03;;;;;;;;;;;;;;;;;;5127492;28;20015;-40
2024/01/10 02:54:28;;;;;;;;;;;;;;;;;;5128426;28;19927;-42
2024/01/10 02:56:54;;;;;;;;;;;;;;;;;;5128098;28;20379;-40
2024/01/10 02:59:19;;;;;;;;;;;;;;;;;;5128011;28;20385;-41
2024/01/10 03:01:45;;;;;;;;;;;;;;;;;;5127893;28;19930;-42
2024/01/10 03:04:10;;;;;;;;;;;;;;;;;;5128198;28;20449;-40
2024/01/10 03:06:36;;;;;;;;;;;;;;;;;;5127873;28;19973;-41
2024/01/10 03:09:02;;;;;;;;;;;;;;;;;;5127935;28;19970;-41
2024/01/10 03:11:27;;;;;;;;;;;;;;;;;;5127438;28;19956;-41
2024/01/10 03:13:53;;;;;;;;;;;;;;;;;;5128009;28;20018;-40
2024/01/10 03:16:18;;;;;;;;;;;;;;;;;;5127228;28;19974;-41
2024/01/10 03:18:44;;;;;;;;;;;;;;;;;;5128123;28;19950;-43
2024/01/10 03:21:09;;;;;;;;;;;;;;;;;;5127605;28;20018;-41
2024/01/10 03:23:35;;;;;;;;;;;;;;;;;;5127271;28;20018;-41
2024/01/10 03:26:00;;;;;;;;;;;;;;;;;;5127871;28;19928;-40
2024/01/10 03:28:26;;;;;;;;;;;;;;;;;;5127549;28;20014;-41
2024/01/10 03:30:51;;;;;;;;;;;;;;;;;;5127738;28;19945;-43
2024/01/10 03:33:17;;;;;;;;;;;;;;;;;;5127448;28;19923;-40
2024/01/10 03:35:42;;;;;;;;;;;;;;;;;;5127811;28;19959;-41
2024/01/10 03:38:08;;;;;;;;;;;;;;;;;;5127430;28;20345;-42
2024/01/10 03:40:33;;;;;;;;;;;;;;;;;;5127569;28;19976;-42
2024/01/10 03:42:59;;;;;;;;;;;;;;;;;;5127121;28;19979;-40
2024/01/10 03:45:24;;;;;;;;;;;;;;;;;;5127202;28;20029;-41
2024/01/10 03:47:50;;;;;;;;;;;;;;;;;;5127274;28;19968;-40
2024/01/10 03:50:16;;;;;;;;;;;;;;;;;;5127381;28;19931;-43
2024/01/10 03:52:42;;;;;;;;;;;;;;;;;;5126868;28;19931;-40
2024/01/10 03:55:07;;;;;;;;;;;;;;;;;;5127489;27;20030;-42
2024/01/10 03:57:33;;;;;;;;;;;;;;;;;;5130983;28;19995;-41
2024/01/10 03:59:58;;;;;;;;;;;;;;;;;;5131117;28;19938;-40
2024/01/10 04:02:24;;;;;;;;;;;;;;;;;;5130691;28;19958;-40
2024/01/10 04:04:50;;;;;;;;;;;;;;;;;;5130873;28;19930;-42
2024/01/10 04:07:15;;;;;;;;;;;;;;;;;;5131094;28;19931;-43
2024/01/10 04:09:41;;;;;;;;;;;;;;;;;;5130479;28;20386;-42
2024/01/10 04:12:06;;;;;;;;;;;;;;;;;;5130431;28;20281;-40
2024/01/10 04:14:31;;;;;;;;;;;;;;;;;;5130598;28;19923;-42
2024/01/10 04:16:57;;;;;;;;;;;;;;;;;;5130184;28;19923;-42
2024/01/10 04:19:22;;;;;;;;;;;;;;;;;;5130657;28;19924;-41
2024/01/10 04:21:48;;;;;;;;;;;;;;;;;;5130624;28;19997;-39
2024/01/10 04:24:14;;;;;;;;;;;;;;;;;;5130056;28;20116;-42
2024/01/10 04:26:39;;;;;;;;;;;;;;;;;;5130412;28;19928;-43
2024/01/10 04:29:04;;;;;;;;;;;;;;;;;;5130820;28;19978;-42
2024/01/10 04:31:30;;;;;;;;;;;;;;;;;;5130521;28;20036;-41
2024/01/10 04:33:55;;;;;;;;;;;;;;;;;;5130229;28;20335;-40
2024/01/10 04:36:21;;;;;;;;;;;;;;;;;;5130607;28;20334;-40
2024/01/10 04:38:46;;;;;;;;;;;;;;;;;;5130451;28;20008;-42
2024/01/10 04:41:12;;;;;;;;;;;;;;;;;;5130288;28;20026;-45
2024/01/10 04:43:37;;;;;;;;;;;;;;;;;;5130094;28;19981;-41
2024/01/10 04:46:03;;;;;;;;;;;;;;;;;;5129705;28;19931;-42
2024/01/10 04:48:28;;;;;;;;;;;;;;;;;;5130264;28;19927;-40
2024/01/10 04:50:54;;;;;;;;;;;;;;;;;;5130382;28;20035;-40
2024/01/10 04:53:19;;;;;;;;;;;;;;;;;;5129875;28;19993;-40
2024/01/10 04:55:45;;;;;;;;;;;;;;;;;;5130241;28;19923;-41
2024/01/10 04:58:12;;;;;;;;;;;;;;;;;;5130099;28;19932;-40
2024/01/10 05:00:38;;;;;;;;;;;;;;;;;;5130023;28;20019;-39
2024/01/10 05:03:03;;;;;;;;;;;;;;;;;;5129686;28;20015;-41
2024/01/10 05:05:29;;;;;;;;;;;;;;;;;;5130096;28;19927;-39
2024/01/10 05:07:54;;;;;;;;;;;;;;;;;;5129358;27;19927;-44
2024/01/10 05:10:20;;;;;;;;;;;;;;;;;;5129714;28;19923;-41
2024/01/10 05:12:45;;;;;;;;;;;;;;;;;;5129439;28;19978;-43
2024/01/10 05:15:11;;;;;;;;;;;;;;;;;;5129471;28;20377;-42
2024/01/10 05:17:36;;;;;;;;;;;;;;;;;;5129522;28;19927;-41
2024/01/10 05:20:02;;;;;;;;;;;;;;;;;;5129894;28;20010;-40
2024/01/10 05:22:28;;;;;;;;;;;;;;;;;;5129692;28;20018;-41
2024/01/10 05:24:53;;;;;;;;;;;;;;;;;;5129802;28;19932;-41
2024/01/10 05:27:19;;;;;;;;;;;;;;;;;;5129547;28;20006;-40
2024/01/10 05:29:46;;;;;;;;;;;;;;;;;;5129841;28;19927;-40
2024/01/10 05:32:11;;;;;;;;;;;;;;;;;;5129017;28;20023;-40
2024/01/10 05:34:36;;;;;;;;;;;;;;;;;;5129160;28;19966;-41
2024/01/10 05:37:02;;;;;;;;;;;;;;;;;;5129495;28;19971;-42
2024/01/10 05:39:27;;;;;;;;;;;;;;;;;;5129601;28;20060;-40
2024/01/10 05:41:53;;;;;;;;;;;;;;;;;;5128716;28;20018;-41
2024/01/10 05:44:18;;;;;;;;;;;;;;;;;;5128825;28;19982;-40
2024/01/10 05:46:44;;;;;;;;;;;;;;;;;;5128729;28;19923;-42
2024/01/10 05:49:10;;;;;;;;;;;;;;;;;;5129106;28;19923;-41
2024/01/10 05:51:37;;;;;;;;;;;;;;;;;;5129373;28;19935;-42
2024/01/10 05:54:04;;;;;;;;;;;;;;;;;;5128697;28;19924;-42
2024/01/10 05:56:29;;;;;;;;;;;;;;;;;;5128593;28;20430;-41
2024/01/10 05:58:55;;;;;;;;;;;;;;;;;;5129310;28;19930;-41
2024/01/10 06:01:20;;;;;;;;;;;;;;;;;;5125713;28;20264;-41
2024/01/10 06:03:46;;;;;;;;;;;;;;;;;;5127287;28;20381;-43
2024/01/10 06:06:11;;;;;;;;;;;;;;;;;;5126121;28;20458;-40
2024/01/10 06:08:37;;;;;;;;;;;;;;;;;;5125292;28;19966;-41
2024/01/10 06:11:02;;;;;;;;;;;;;;;;;;5128777;27;20080;-40
2024/01/10 06:13:28;;;;;;;;;;;;;;;;;;5126748;28;19974;-44
2024/01/10 06:16:03;;;;;;;;;;;;;;;;;;5127561;28;19930;-42
2024/01/10 06:18:28;;;;;;;;;;;;;;;;;;5126024;28;19931;-42
2024/01/10 06:20:54;;;;;;;;;;;;;;;;;;5128538;28;19969;-41
2024/01/10 06:23:19;;;;;;;;;;;;;;;;;;5128212;28;19957;-41
2024/01/10 06:25:45;;;;;;;;;;;;;;;;;;5125151;28;19960;-41
2024/01/10 06:28:10;;;;;;;;;;;;;;;;;;5126640;28;19927;-40
2024/01/10 06:30:36;;;;;;;;;;;;;;;;;;5126823;28;20010;-41
2024/01/10 06:33:01;;;;;;;;;;;;;;;;;;5127428;28;19927;-40
2024/01/10 06:35:27;;;;;;;;;;;;;;;;;;5126464;28;19935;-42
2024/01/10 06:37:52;;;;;;;;;;;;;;;;;;5128133;28;20343;-41
2024/01/10 06:40:18;;;;;;;;;;;;;;;;;;5124056;28;20016;-40
2024/01/10 06:42:43;;;;;;;;;;;;;;;;;;5125309;28;19928;-42
2024/01/10 06:45:09;;;;;;;;;;;;;;;;;;5127755;28;19960;-42
2024/01/10 06:47:35;;;;;;;;;;;;;;;;;;5127729;28;19930;-41
2024/01/10 06:50:01;;;;;;;;;;;;;;;;;;5127940;28;20287;-41
2024/01/10 06:52:26;;;;;;;;;;;;;;;;;;5127659;28;19932;-40
2024/01/10 06:54:52;;;;;;;;;;;;;;;;;;5127570;28;19958;-42
2024/01/10 06:57:17;;;;;;;;;;;;;;;;;;5127705;28;20026;-41
2024/01/10 06:59:43;;;;;;;;;;;;;;;;;;5126784;28;19934;-40
2024/01/10 07:02:09;;;;;;;;;;;;;;;;;;5122383;27;20328;-44
2024/01/10 07:04:34;;;;;;;;;;;;;;;;;;5120762;27;20037;-41
2024/01/10 07:07:00;;;;;;;;;;;;;;;;;;5122839;27;20084;-42
2024/01/10 07:09:26;;;;;;;;;;;;;;;;;;5124026;28;20346;-42
2024/01/10 07:11:51;;;;;;;;;;;;;;;;;;5122285;27;19923;-40
2024/01/10 07:14:16;;;;;;;;;;;;;;;;;;5122753;27;19939;-40
2024/01/10 07:16:45;;;;;;;;;;;;;;;;;;5119164;28;20393;-40
2024/01/10 07:19:13;;;;;;;;;;;;;;;;;;5124401;27;19924;-42
2024/01/10 07:21:38;;;;;;;;;;;;;;;;;;5123823;28;19951;-41
2024/01/10 07:24:04;;;;;;;;;;;;;;;;;;5125389;28;19937;-43
2024/01/10 07:26:29;;;;;;;;;;;;;;;;;;5124486;28;20350;-42
2024/01/10 07:28:55;;;;;;;;;;;;;;;;;;5125278;28;20011;-43
2024/01/10 07:31:20;;;;;;;;;;;;;;;;;;5123133;27;19924;-41
2024/01/10 07:33:45;;;;;;;;;;;;;;;;;;5121939;28;20375;-42
2024/01/10 07:36:11;;;;;;;;;;;;;;;;;;5120817;27;19931;-43
2024/01/10 07:38:37;;;;;;;;;;;;;;;;;;5125522;28;19936;-41
2024/01/10 07:41:02;;;;;;;;;;;;;;;;;;5121960;28;19966;-41
2024/01/10 07:43:28;;;;;;;;;;;;;;;;;;5122425;27;19928;-41
2024/01/10 07:45:54;;;;;;;;;;;;;;;;;;5122384;28;20387;-42
2024/01/10 07:48:20;;;;;;;;;;;;;;;;;;5118692;28;19939;-42
2024/01/10 07:50:45;;;;;;;;;;;;;;;;;;5123071;28;20422;-40
2024/01/10 07:56:14;;;;;;;;;;;;;;;;;;5108004;28;19942;-41
2024/01/10 07:58:39;;;;;;;;;;;;;;;;;;5117060;27;20291;-41
2024/01/10 08:01:04;;;;;;;;;;;;;;;;;;5118082;27;20022;-41
2024/01/10 08:03:30;;;;;;;;;;;;;;;;;;5118916;28;19945;-41
2024/01/10 08:05:56;;;;;;;;;;;;;;;;;;5112622;28;19929;-40
2024/01/10 08:08:21;;;;;;;;;;;;;;;;;;5119944;27;21066;-41
2024/01/10 08:10:47;;;;;;;;;;;;;;;;;;5117149;27;19932;-41
2024/01/10 08:13:12;;;;;;;;;;;;;;;;;;5122658;27;19967;-40
2024/01/10 08:15:38;;;;;;;;;;;;;;;;;;5121736;27;19924;-39
2024/01/10 08:18:03;;;;;;;;;;;;;;;;;;5116428;28;19931;-42
2024/01/10 08:20:29;;;;;;;;;;;;;;;;;;5112564;27;20406;-40
2024/01/10 08:22:55;;;;;;;;;;;;;;;;;;5114267;28;19931;-41
2024/01/10 08:25:21;;;;;;;;;;;;;;;;;;5119668;27;20403;-40
2024/01/10 08:27:46;;;;;;;;;;;;;;;;;;5120351;28;19966;-41
2024/01/10 08:30:12;;;;;;;;;;;;;;;;;;5117670;28;20752;-41
2024/01/10 08:32:37;;;;;;;;;;;;;;;;;;5120544;28;19955;-41
2024/01/10 08:35:04;;;;;;;;;;;;;;;;;;5119997;28;20014;-41
2024/01/10 08:37:30;;;;;;;;;;;;;;;;;;5123966;28;19931;-41
2024/01/10 08:39:55;;;;;;;;;;;;;;;;;;5122253;27;20022;-40
2024/01/10 08:42:21;;;;;;;;;;;;;;;;;;5125010;27;20251;-43
2024/01/10 08:44:46;;;;;;;;;;;;;;;;;;5125569;28;19975;-40
2024/01/10 08:47:12;;;;;;;;;;;;;;;;;;5125032;28;20051;-40
2024/01/10 08:49:38;;;;;;;;;;;;;;;;;;5126406;28;20363;-42
2024/01/10 08:52:03;;;;;;;;;;;;;;;;;;5120402;28;19927;-42
2024/01/10 08:54:29;;;;;;;;;;;;;;;;;;5029559;28;20351;-42
2024/01/10 08:56:54;;;;;;;;;;;;;;;;;;5023138;28;19926;-40
2024/01/10 08:59:20;;;;;;;;;;;;;;;;;;5019666;28;20152;-41
2024/01/10 09:01:45;;;;;;;;;;;;;;;;;;5020954;28;19947;-42
2024/01/10 09:04:11;;;;;;;;;;;;;;;;;;5018168;28;20028;-42
2024/01/10 09:06:36;;;;;;;;;;;;;;;;;;5021733;28;19940;-42
2024/01/10 09:09:02;;;;;;;;;;;;;;;;;;5020443;28;19968;-41
2024/01/10 09:11:28;;;;;;;;;;;;;;;;;;5023250;28;19925;-43
2024/01/10 09:13:53;;;;;;;;;;;;;;;;;;5122194;28;19994;-41
2024/01/10 09:16:19;;;;;;;;;;;;;;;;;;5126942;28;19928;-40
2024/01/10 09:18:44;;;;;;;;;;;;;;;;;;5124665;28;20316;-41
2024/01/10 09:21:10;;;;;;;;;;;;;;;;;;5119459;27;19976;-42
2024/01/10 09:23:36;;;;;;;;;;;;;;;;;;5124274;28;20287;-43
2024/01/10 09:26:02;;;;;;;;;;;;;;;;;;5119376;27;19966;-41
2024/01/10 09:28:27;;;;;;;;;;;;;;;;;;5116483;27;19923;-44
2024/01/10 09:30:54;;;;;;;;;;;;;;;;;;5119455;28;20001;-41
2024/01/10 09:33:19;;;;;;;;;;;;;;;;;;5121602;27;19932;-40
2024/01/10 09:35:45;;;;;;;;;;;;;;;;;;5117867;27;19928;-41
2024/01/10 09:38:11;;;;;;;;;;;;;;;;;;5115915;27;19966;-42
2024/01/10 09:40:37;;;;;;;;;;;;;;;;;;5119854;28;19927;-41
2024/01/10 09:43:03;;;;;;;;;;;;;;;;;;5119194;27;19931;-40
2024/01/10 09:45:28;;;;;;;;;;;;;;;;;;5115242;28;19923;-40
2024/01/10 09:47:54;;;;;;;;;;;;;;;;;;5118390;28;19958;-41
2024/01/10 09:50:20;;;;;;;;;;;;;;;;;;5121118;28;20112;-42
2024/01/10 09:52:45;;;;;;;;;;;;;;;;;;5119425;28;20365;-42
2024/01/10 09:55:11;;;;;;;;;;;;;;;;;;5118226;28;19936;-43
2024/01/10 09:57:36;;;;;;;;;;;;;;;;;;5121120;28;19932;-41
2024/01/10 10:00:04;;;;;;;;;;;;;;;;;;5124686;28;19927;-42
2024/01/10 10:02:30;;;;;;;;;;;;;;;;;;5123230;28;20285;-42
2024/01/10 10:04:55;;;;;;;;;;;;;;;;;;5125992;28;20291;-45
2024/01/10 10:07:23;;;;;;;;;;;;;;;;;;5124130;28;19927;-40
2024/01/10 10:09:48;;;;;;;;;;;;;;;;;;5125285;28;19973;-42
2024/01/10 10:12:14;;;;;;;;;;;;;;;;;;5125595;28;19938;-42
2024/01/10 10:14:39;;;;;;;;;;;;;;;;;;5125832;28;19973;-44
2024/01/10 10:17:05;;;;;;;;;;;;;;;;;;5127085;28;19923;-42
2024/01/10 10:19:31;;;;;;;;;;;;;;;;;;5117439;28;19984;-41
2024/01/10 10:22:05;;;;;;;;;;;;;;;;;;5124210;28;20016;-42
2024/01/10 10:24:30;;;;;;;;;;;;;;;;;;5123586;28;19962;-41
2024/01/10 10:26:58;;;;;;;;;;;;;;;;;;5122369;28;20019;-40
2024/01/10 10:29:24;;;;;;;;;;;;;;;;;;5120138;28;19927;-41
2024/01/10 10:31:49;;;;;;;;;;;;;;;;;;5121796;28;19977;-43
2024/01/10 10:34:15;;;;;;;;;;;;;;;;;;5123720;28;20018;-41
2024/01/10 10:36:41;;;;;;;;;;;;;;;;;;5125475;28;20015;-41
2024/01/10 10:39:13;;;;;;;;;;;;;;;;;;5121928;28;19938;-40
2024/01/10 10:41:38;;;;;;;;;;;;;;;;;;5122689;27;19938;-41
2024/01/10 10:44:04;;;;;;;;;;;;;;;;;;5121976;28;19927;-41
2024/01/10 10:46:30;;;;;;;;;;;;;;;;;;5121894;28;19927;-42
2024/01/10 10:48:55;;;;;;;;;;;;;;;;;;5122406;28;20014;-41
2024/01/10 10:51:21;;;;;;;;;;;;;;;;;;5121925;28;19946;-40
2024/01/10 10:53:46;;;;;;;;;;;;;;;;;;5121808;27;20411;-40
2024/01/10 10:56:12;;;;;;;;;;;;;;;;;;5019616;28;19933;-41
2024/01/10 10:58:37;;;;;;;;;;;;;;;;;;5008327;28;19992;-41
2024/01/10 11:01:03;;;;;;;;;;;;;;;;;;5006068;28;19939;-40
2024/01/10 11:03:29;;;;;;;;;;;;;;;;;;5007045;28;19951;-41
2024/01/10 11:05:54;;;;;;;;;;;;;;;;;;5006204;28;20401;-43
2024/01/10 11:08:20;;;;;;;;;;;;;;;;;;5005898;28;20023;-56
2024/01/10 11:10:46;;;;;;;;;;;;;;;;;;5008744;28;19948;-45
2024/01/10 11:13:11;;;;;;;;;;;;;;;;;;5008765;28;19952;-46
2024/01/10 11:15:36;;;;;;;;;;;;;;;;;;5109303;28;20017;-42
2024/01/10 11:18:02;;;;;;;;;;;;;;;;;;5111390;28;20018;-41
2024/01/10 11:20:27;;;;;;;;;;;;;;;;;;5109634;28;20399;-42
2024/01/10 11:22:53;;;;;;;;;;;;;;;;;;5111827;28;19952;-42
2024/01/10 11:25:19;;;;;;;;;;;;;;;;;;5112453;28;19927;-42
2024/01/10 11:27:47;;;;;;;;;;;;;;;;;;5111297;28;19977;-43
2024/01/10 11:30:12;;;;;;;;;;;;;;;;;;5109302;28;19990;-43
2024/01/10 11:32:38;;;;;;;;;;;;;;;;;;5110665;28;19931;-44
2024/01/10 11:35:04;;;;;;;;;;;;;;;;;;5107951;27;19923;-43
2024/01/10 11:37:30;;;;;;;;;;;;;;;;;;5109027;28;19931;-43
2024/01/10 11:39:55;;;;;;;;;;;;;;;;;;5115674;28;19931;-42
2024/01/10 11:42:20;;;;;;;;;;;;;;;;;;5120430;28;20387;-42
2024/01/10 11:44:46;;;;;;;;;;;;;;;;;;5123540;28;19945;-44
2024/01/10 11:47:11;;;;;;;;;;;;;;;;;;5116233;28;20353;-42
2024/01/10 11:49:37;;;;;;;;;;;;;;;;;;5119293;28;19932;-42
2024/01/10 11:52:03;;;;;;;;;;;;;;;;;;5118387;28;19927;-41
2024/01/10 11:54:29;;;;;;;;;;;;;;;;;;5123098;27;21041;-42
2024/01/10 11:56:54;;;;;;;;;;;;;;;;;;5123485;28;20012;-41
2024/01/10 11:59:20;;;;;;;;;;;;;;;;;;5123513;28;19932;-43
2024/01/10 12:01:46;;;;;;;;;;;;;;;;;;5121714;28;19930;-50
2024/01/10 12:04:12;;;;;;;;;;;;;;;;;;5123882;28;19923;-44
2024/01/10 12:06:43;;;;;;;;;;;;;;;;;;5122335;28;19977;-47
2024/01/10 12:09:09;;;;;;;;;;;;;;;;;;5124918;28;20559;-46
2024/01/10 12:11:34;;;;;;;;;;;;;;;;;;5120313;28;20006;-49
2024/01/10 12:13:59;;;;;;;;;;;;;;;;;;5121477;28;20038;-47
2024/01/10 12:16:25;;;;;;;;;;;;;;;;;;5121090;27;19983;-42
2024/01/10 12:18:51;;;;;;;;;;;;;;;;;;5127491;28;20358;-42
2024/01/10 12:21:16;;;;;;;;;;;;;;;;;;5122726;27;19928;-45
2024/01/10 12:23:42;;;;;;;;;;;;;;;;;;5126596;28;19985;-41
2024/01/10 12:26:07;;;;;;;;;;;;;;;;;;5126502;28;20002;-42
2024/01/10 12:28:33;;;;;;;;;;;;;;;;;;5125964;28;19931;-43
2024/01/10 12:30:59;;;;;;;;;;;;;;;;;;5125977;28;19971;-41
2024/01/10 12:33:24;;;;;;;;;;;;;;;;;;5126997;28;19927;-42
2024/01/10 12:35:50;;;;;;;;;;;;;;;;;;5123629;28;19932;-43
2024/01/10 12:38:15;;;;;;;;;;;;;;;;;;5123050;28;19975;-43
2024/01/10 12:40:41;;;;;;;;;;;;;;;;;;5113403;28;19934;-46
2024/01/10 12:43:07;;;;;;;;;;;;;;;;;;5114904;28;20039;-41
2024/01/10 12:45:33;;;;;;;;;;;;;;;;;;5113388;28;19967;-44
2024/01/10 12:47:58;;;;;;;;;;;;;;;;;;5110867;28;20241;-41
2024/01/10 12:50:25;;;;;;;;;;;;;;;;;;5114455;28;19953;-40
2024/01/10 12:52:51;;;;;;;;;;;;;;;;;;5113173;28;19934;-41
2024/01/10 12:55:17;;;;;;;;;;;;;;;;;;5113473;28;20018;-41
2024/01/10 12:57:42;;;;;;;;;;;;;;;;;;5112810;28;19962;-44
2024/01/10 13:00:08;;;;;;;;;;;;;;;;;;5113000;28;19984;-41
2024/01/10 13:02:36;;;;;;;;;;;;;;;;;;5113619;28;20018;-42
2024/01/10 13:05:02;;;;;;;;;;;;;;;;;;5112813;28;20334;-44
2024/01/10 13:07:31;;;;;;;;;;;;;;;;;;5114846;28;19963;-42
2024/01/10 13:09:56;;;;;;;;;;;;;;;;;;5114267;28;20032;-41
2024/01/10 13:12:21;;;;;;;;;;;;;;;;;;5114593;28;20443;-40
2024/01/10 13:14:47;;;;;;;;;;;;;;;;;;5112776;28;20014;-41
2024/01/10 13:17:12;;;;;;;;;;;;;;;;;;5113998;28;21512;-39
2024/01/10 13:19:38;;;;;;;;;;;;;;;;;;5114951;28;19931;-42
2024/01/10 13:22:03;;;;;;;;;;;;;;;;;;5113309;28;20418;-41
2024/01/10 13:24:31;;;;;;;;;;;;;;;;;;5110066;28;20111;-40
2024/01/10 13:26:57;;;;;;;;;;;;;;;;;;5110205;28;19931;-41
2024/01/10 13:29:22;;;;;;;;;;;;;;;;;;5111072;27;20052;-41
2024/01/10 13:31:49;;;;;;;;;;;;;;;;;;5115087;28;19939;-40
2024/01/10 13:34:14;;;;;;;;;;;;;;;;;;5123971;28;19952;-42
2024/01/10 13:36:41;;;;;;;;;;;;;;;;;;5123264;28;19927;-41
2024/01/10 13:39:07;;;;;;;;;;;;;;;;;;5125381;28;20189;-41
2024/01/10 13:41:32;;;;;;;;;;;;;;;;;;5115450;28;20004;-43
2024/01/10 13:43:58;;;;;;;;;;;;;;;;;;5111663;28;20468;-41
2024/01/10 13:46:23;;;;;;;;;;;;;;;;;;5110977;28;20022;-41
2024/01/10 13:48:49;;;;;;;;;;;;;;;;;;5110417;28;19924;-41
2024/01/10 13:51:14;;;;;;;;;;;;;;;;;;5110449;28;20474;-42
2024/01/10 13:53:40;;;;;;;;;;;;;;;;;;5112170;28;20655;-41
2024/01/10 13:56:05;;;;;;;;;;;;;;;;;;5113112;28;19931;-41
2024/01/10 13:58:31;;;;;;;;;;;;;;;;;;5110265;28;19971;-41
2024/01/10 14:00:58;;;;;;;;;;;;;;;;;;5112525;28;21231;-42
2024/01/10 14:03:23;;;;;;;;;;;;;;;;;;5113820;28;20015;-41
2024/01/10 14:05:49;;;;;;;;;;;;;;;;;;5113773;28;19927;-40
2024/01/10 14:08:15;;;;;;;;;;;;;;;;;;5113313;28;20279;-40
2024/01/10 14:10:41;;;;;;;;;;;;;;;;;;5112633;28;19943;-41
2024/01/10 14:13:07;;;;;;;;;;;;;;;;;;5112083;28;19970;-40
2024/01/10 14:15:32;;;;;;;;;;;;;;;;;;5110388;28;20010;-40
2024/01/10 14:17:58;;;;;;;;;;;;;;;;;;5111782;28;20062;-40
2024/01/10 14:20:24;;;;;;;;;;;;;;;;;;5111648;28;19932;-40
2024/01/10 14:22:50;;;;;;;;;;;;;;;;;;5110657;28;20016;-40
2024/01/10 14:25:15;;;;;;;;;;;;;;;;;;5111017;28;20228;-41
2024/01/10 14:27:41;;;;;;;;;;;;;;;;;;5111481;28;19927;-41
2024/01/10 14:30:08;;;;;;;;;;;;;;;;;;5113649;28;20374;-41
2024/01/10 14:32:33;;;;;;;;;;;;;;;;;;5118591;28;19923;-42
2024/01/10 14:34:59;;;;;;;;;;;;;;;;;;5122460;28;19933;-39
2024/01/10 14:37:25;;;;;;;;;;;;;;;;;;5126753;28;20018;-41
2024/01/10 14:39:51;;;;;;;;;;;;;;;;;;5123211;27;20045;-43
2024/01/10 14:42:17;;;;;;;;;;;;;;;;;;5125374;28;19923;-40
2024/01/10 14:44:42;;;;;;;;;;;;;;;;;;5124611;28;19967;-40
2024/01/10 14:47:08;;;;;;;;;;;;;;;;;;5123825;28;19930;-40
2024/01/10 14:49:36;;;;;;;;;;;;;;;;;;5125046;28;20439;-42
2024/01/10 14:52:02;;;;;;;;;;;;;;;;;;5127245;28;20397;-40
2024/01/10 14:54:27;;;;;;;;;;;;;;;;;;5127460;28;19967;-40
2024/01/10 14:56:53;;;;;;;;;;;;;;;;;;5127714;28;20002;-40
2024/01/10 14:59:18;;;;;;;;;;;;;;;;;;5127272;28;19977;-40
2024/01/10 15:01:48;;;;;;;;;;;;;;;;;;5127468;28;20014;-41
2024/01/10 15:04:14;;;;;;;;;;;;;;;;;;5125865;28;20278;-39
2024/01/10 15:06:39;;;;;;;;;;;;;;;;;;5127879;28;20209;-41
2024/01/10 15:09:06;;;;;;;;;;;;;;;;;;5127900;28;19931;-40
2024/01/10 15:11:32;;;;;;;;;;;;;;;;;;5127532;28;19930;-40
2024/01/10 15:13:57;;;;;;;;;;;;;;;;;;5126797;28;20006;-40
2024/01/10 15:16:23;;;;;;;;;;;;;;;;;;5127243;28;20432;-40
2024/01/10 15:18:48;;;;;;;;;;;;;;;;;;5126550;28;19938;-40
2024/01/10 15:21:14;;;;;;;;;;;;;;;;;;5126174;28;19928;-40
2024/01/10 15:23:41;;;;;;;;;;;;;;;;;;5128057;28;19924;-39
2024/01/10 15:26:06;;;;;;;;;;;;;;;;;;5127354;28;20246;-40
2024/01/10 15:28:32;;;;;;;;;;;;;;;;;;5127177;28;19930;-39
2024/01/10 15:30:57;;;;;;;;;;;;;;;;;;5127511;28;19959;-39
2024/01/10 15:33:23;;;;;;;;;;;;;;;;;;5127288;28;19931;-40
2024/01/10 15:35:48;;;;;;;;;;;;;;;;;;5127304;28;19924;-40
2024/01/10 15:38:14;;;;;;;;;;;;;;;;;;5127149;28;20349;-41
2024/01/10 15:40:39;;;;;;;;;;;;;;;;;;5126975;28;19985;-40
2024/01/10 15:43:05;;;;;;;;;;;;;;;;;;5125121;28;19931;-41
2024/01/10 15:45:31;;;;;;;;;;;;;;;;;;5126631;28;19990;-40
2024/01/10 15:47:57;;;;;;;;;;;;;;;;;;5126052;28;19971;-40
2024/01/10 15:50:22;;;;;;;;;;;;;;;;;;5126725;27;20026;-41
2024/01/10 15:52:48;;;;;;;;;;;;;;;;;;5130942;28;20437;-40
2024/01/10 15:55:14;;;;;;;;;;;;;;;;;;5130741;28;19935;-41
2024/01/10 15:57:39;;;;;;;;;;;;;;;;;;5130656;28;20002;-41
2024/01/10 16:00:05;;;;;;;;;;;;;;;;;;5130332;28;19927;-40
2024/01/10 16:02:31;;;;;;;;;;;;;;;;;;5131142;28;19937;-39
2024/01/10 16:04:57;;;;;;;;;;;;;;;;;;5128799;28;19931;-41
2024/01/10 16:07:24;;;;;;;;;;;;;;;;;;5131039;27;20143;-40
2024/01/10 16:09:49;;;;;;;;;;;;;;;;;;5130096;28;20336;-41
2024/01/10 16:12:15;;;;;;;;;;;;;;;;;;5130291;28;19931;-40
2024/01/10 16:14:41;;;;;;;;;;;;;;;;;;5130383;28;19934;-40
2024/01/10 16:17:06;;;;;;;;;;;;;;;;;;5130009;28;19931;-41
2024/01/10 16:19:32;;;;;;;;;;;;;;;;;;5126422;28;19930;-41
2024/01/10 16:21:57;;;;;;;;;;;;;;;;;;5130297;28;19923;-40
2024/01/10 16:24:23;;;;;;;;;;;;;;;;;;5130107;28;19924;-40
2024/01/10 16:26:48;;;;;;;;;;;;;;;;;;5130233;28;19929;-40
2024/01/10 16:29:14;;;;;;;;;;;;;;;;;;5130443;28;20421;-40
2024/01/10 16:31:39;;;;;;;;;;;;;;;;;;5130487;28;20363;-40
2024/01/10 16:34:05;;;;;;;;;;;;;;;;;;5130179;28;19978;-40
2024/01/10 16:36:30;;;;;;;;;;;;;;;;;;5130191;28;20030;-41
2024/01/10 16:38:56;;;;;;;;;;;;;;;;;;5130549;28;20018;-40